sensor_id;sensor_type;location;lat;lon;timestamp;P1;durP1;ratioP1;P2;durP2;ratioP2
52508;SDS011;38420;53.150;6.370;2023-05-07T00:01:06;29.90;;;23.15;;
52508;SDS011;38420;53.150;6.370;2023-05-07T00:03:32;32.28;;;23.92;;
52508;SDS011;38420;53.150;6.370;2023-05-07T00:05:58;58.72;;;25.65;;
52508;SDS011;38420;53.150;6.370;2023-05-07T00:08:23;37.58;;;26.13;;
52508;SDS011;38420;53.150;6.370;2023-05-07T00:10:49;36.47;;;25.58;;
52508;SDS011;38420;53.150;6.370;2023-05-07T00:13:15;33.70;;;24.55;;
52508;SDS011;38420;53.150;6.370;2023-05-07T00:15:41;34.75;;;25.13;;
52508;SDS011;38420;53.150;6.370;2023-05-07T00:18:06;33.63;;;25.20;;
52508;SDS011;38420;53.150;6.370;2023-05-07T00:20:32;35.92;;;24.63;;
52508;SDS011;38420;53.150;6.370;2023-05-07T00:22:57;35.35;;;24.38;;
52508;SDS011;38420;53.150;6.370;2023-05-07T00:25:23;36.30;;;26.83;;
52508;SDS011;38420;53.150;6.370;2023-05-07T00:27:49;35.05;;;27.02;;
52508;SDS011;38420;53.150;6.370;2023-05-07T00:30:14;36.83;;;25.48;;
52508;SDS011;38420;53.150;6.370;2023-05-07T00:32:40;37.10;;;26.77;;
52508;SDS011;38420;53.150;6.370;2023-05-07T00:35:06;44.03;;;28.48;;
52508;SDS011;38420;53.150;6.370;2023-05-07T00:37:32;36.60;;;27.02;;
52508;SDS011;38420;53.150;6.370;2023-05-07T00:39:58;36.95;;;27.38;;
52508;SDS011;38420;53.150;6.370;2023-05-07T00:42:23;41.80;;;26.95;;
52508;SDS011;38420;53.150;6.370;2023-05-07T00:44:49;36.88;;;27.55;;
52508;SDS011;38420;53.150;6.370;2023-05-07T00:47:15;43.38;;;29.10;;
52508;SDS011;38420;53.150;6.370;2023-05-07T00:49:42;39.10;;;28.13;;
52508;SDS011;38420;53.150;6.370;2023-05-07T00:52:13;43.25;;;29.05;;
52508;SDS011;38420;53.150;6.370;2023-05-07T00:54:40;37.25;;;28.35;;
52508;SDS011;38420;53.150;6.370;2023-05-07T00:57:07;40.70;;;29.38;;
52508;SDS011;38420;53.150;6.370;2023-05-07T00:59:34;41.67;;;28.35;;
52508;SDS011;38420;53.150;6.370;2023-05-07T01:02:00;45.38;;;30.98;;
52508;SDS011;38420;53.150;6.370;2023-05-07T01:04:26;41.75;;;30.98;;
52508;SDS011;38420;53.150;6.370;2023-05-07T01:06:52;38.92;;;27.90;;
52508;SDS011;38420;53.150;6.370;2023-05-07T01:09:22;38.58;;;29.08;;
52508;SDS011;38420;53.150;6.370;2023-05-07T01:11:50;41.65;;;30.10;;
52508;SDS011;38420;53.150;6.370;2023-05-07T01:14:16;43.22;;;30.63;;
52508;SDS011;38420;53.150;6.370;2023-05-07T01:16:43;44.05;;;31.70;;
52508;SDS011;38420;53.150;6.370;2023-05-07T01:19:09;76.32;;;69.50;;
52508;SDS011;38420;53.150;6.370;2023-05-07T01:21:36;43.42;;;32.13;;
52508;SDS011;38420;53.150;6.370;2023-05-07T01:24:03;42.08;;;31.05;;
52508;SDS011;38420;53.150;6.370;2023-05-07T01:26:30;44.88;;;30.38;;
52508;SDS011;38420;53.150;6.370;2023-05-07T01:28:56;47.47;;;30.80;;
52508;SDS011;38420;53.150;6.370;2023-05-07T01:31:21;49.22;;;33.33;;
52508;SDS011;38420;53.150;6.370;2023-05-07T01:33:49;49.70;;;33.28;;
52508;SDS011;38420;53.150;6.370;2023-05-07T01:36:17;47.15;;;32.05;;
52508;SDS011;38420;53.150;6.370;2023-05-07T01:38:45;50.70;;;33.15;;
52508;SDS011;38420;53.150;6.370;2023-05-07T01:41:11;43.03;;;30.80;;
52508;SDS011;38420;53.150;6.370;2023-05-07T01:43:38;48.00;;;32.13;;
52508;SDS011;38420;53.150;6.370;2023-05-07T01:46:05;48.67;;;31.85;;
52508;SDS011;38420;53.150;6.370;2023-05-07T01:48:31;44.30;;;31.10;;
52508;SDS011;38420;53.150;6.370;2023-05-07T01:50:57;47.53;;;31.73;;
52508;SDS011;38420;53.150;6.370;2023-05-07T01:53:24;53.65;;;33.28;;
52508;SDS011;38420;53.150;6.370;2023-05-07T01:55:52;44.72;;;30.33;;
52508;SDS011;38420;53.150;6.370;2023-05-07T01:58:18;42.85;;;31.35;;
52508;SDS011;38420;53.150;6.370;2023-05-07T02:00:43;48.33;;;32.05;;
52508;SDS011;38420;53.150;6.370;2023-05-07T02:03:09;45.90;;;31.85;;
52508;SDS011;38420;53.150;6.370;2023-05-07T02:05:35;48.10;;;31.42;;
52508;SDS011;38420;53.150;6.370;2023-05-07T02:08:00;51.10;;;33.83;;
52508;SDS011;38420;53.150;6.370;2023-05-07T02:10:26;47.78;;;33.25;;
52508;SDS011;38420;53.150;6.370;2023-05-07T02:12:51;52.53;;;34.22;;
52508;SDS011;38420;53.150;6.370;2023-05-07T02:15:17;51.15;;;32.67;;
52508;SDS011;38420;53.150;6.370;2023-05-07T02:18:05;51.03;;;34.15;;
52508;SDS011;38420;53.150;6.370;2023-05-07T02:20:33;54.13;;;34.85;;
52508;SDS011;38420;53.150;6.370;2023-05-07T02:22:58;49.15;;;32.95;;
52508;SDS011;38420;53.150;6.370;2023-05-07T02:25:24;52.08;;;35.22;;
52508;SDS011;38420;53.150;6.370;2023-05-07T02:27:49;55.00;;;34.58;;
52508;SDS011;38420;53.150;6.370;2023-05-07T02:30:15;47.97;;;33.35;;
52508;SDS011;38420;53.150;6.370;2023-05-07T02:32:41;51.13;;;34.53;;
52508;SDS011;38420;53.150;6.370;2023-05-07T02:35:06;52.40;;;36.97;;
52508;SDS011;38420;53.150;6.370;2023-05-07T02:37:32;60.17;;;36.63;;
52508;SDS011;38420;53.150;6.370;2023-05-07T02:39:58;56.00;;;36.35;;
52508;SDS011;38420;53.150;6.370;2023-05-07T02:42:24;55.38;;;34.88;;
52508;SDS011;38420;53.150;6.370;2023-05-07T02:44:49;56.17;;;36.50;;
52508;SDS011;38420;53.150;6.370;2023-05-07T02:47:15;52.75;;;35.20;;
52508;SDS011;38420;53.150;6.370;2023-05-07T02:49:40;53.10;;;35.10;;
52508;SDS011;38420;53.150;6.370;2023-05-07T02:52:06;57.80;;;38.42;;
52508;SDS011;38420;53.150;6.370;2023-05-07T02:54:32;59.50;;;38.30;;
52508;SDS011;38420;53.150;6.370;2023-05-07T02:56:58;55.70;;;37.42;;
52508;SDS011;38420;53.150;6.370;2023-05-07T02:59:25;57.50;;;37.92;;
52508;SDS011;38420;53.150;6.370;2023-05-07T03:01:51;61.25;;;39.30;;
52508;SDS011;38420;53.150;6.370;2023-05-07T03:04:17;62.88;;;40.72;;
52508;SDS011;38420;53.150;6.370;2023-05-07T03:06:42;63.88;;;39.60;;
52508;SDS011;38420;53.150;6.370;2023-05-07T03:09:08;72.47;;;42.35;;
52508;SDS011;38420;53.150;6.370;2023-05-07T03:11:33;64.90;;;41.33;;
52508;SDS011;38420;53.150;6.370;2023-05-07T03:14:00;65.82;;;41.20;;
52508;SDS011;38420;53.150;6.370;2023-05-07T03:16:26;73.00;;;43.35;;
52508;SDS011;38420;53.150;6.370;2023-05-07T03:18:52;66.95;;;40.92;;
52508;SDS011;38420;53.150;6.370;2023-05-07T03:21:18;67.28;;;41.83;;
52508;SDS011;38420;53.150;6.370;2023-05-07T03:23:43;70.93;;;42.28;;
52508;SDS011;38420;53.150;6.370;2023-05-07T03:26:09;73.80;;;42.97;;
52508;SDS011;38420;53.150;6.370;2023-05-07T03:28:35;72.78;;;43.63;;
52508;SDS011;38420;53.150;6.370;2023-05-07T03:31:00;71.00;;;40.80;;
52508;SDS011;38420;53.150;6.370;2023-05-07T03:33:26;71.35;;;43.42;;
52508;SDS011;38420;53.150;6.370;2023-05-07T03:35:52;65.70;;;41.05;;
52508;SDS011;38420;53.150;6.370;2023-05-07T03:38:18;73.80;;;43.67;;
52508;SDS011;38420;53.150;6.370;2023-05-07T03:40:44;71.03;;;41.92;;
52508;SDS011;38420;53.150;6.370;2023-05-07T03:43:09;74.10;;;45.03;;
52508;SDS011;38420;53.150;6.370;2023-05-07T03:45:35;70.47;;;41.58;;
52508;SDS011;38420;53.150;6.370;2023-05-07T03:48:01;73.75;;;43.20;;
52508;SDS011;38420;53.150;6.370;2023-05-07T03:50:26;75.13;;;43.22;;
52508;SDS011;38420;53.150;6.370;2023-05-07T03:52:52;70.38;;;42.63;;
52508;SDS011;38420;53.150;6.370;2023-05-07T03:55:17;80.32;;;45.55;;
52508;SDS011;38420;53.150;6.370;2023-05-07T03:57:43;73.32;;;43.53;;
52508;SDS011;38420;53.150;6.370;2023-05-07T04:00:09;73.78;;;42.92;;
52508;SDS011;38420;53.150;6.370;2023-05-07T04:02:35;72.75;;;40.95;;
52508;SDS011;38420;53.150;6.370;2023-05-07T04:05:00;70.55;;;42.65;;
52508;SDS011;38420;53.150;6.370;2023-05-07T04:07:26;79.00;;;53.88;;
52508;SDS011;38420;53.150;6.370;2023-05-07T04:09:51;75.47;;;42.53;;
52508;SDS011;38420;53.150;6.370;2023-05-07T04:12:17;71.57;;;43.45;;
52508;SDS011;38420;53.150;6.370;2023-05-07T04:14:43;73.82;;;43.35;;
52508;SDS011;38420;53.150;6.370;2023-05-07T04:17:08;70.70;;;41.50;;
52508;SDS011;38420;53.150;6.370;2023-05-07T04:19:35;74.20;;;42.28;;
52508;SDS011;38420;53.150;6.370;2023-05-07T04:22:01;70.35;;;41.63;;
52508;SDS011;38420;53.150;6.370;2023-05-07T04:24:27;72.95;;;43.80;;
52508;SDS011;38420;53.150;6.370;2023-05-07T04:26:52;77.90;;;42.70;;
52508;SDS011;38420;53.150;6.370;2023-05-07T04:29:20;72.55;;;41.45;;
52508;SDS011;38420;53.150;6.370;2023-05-07T04:31:46;74.03;;;41.47;;
52508;SDS011;38420;53.150;6.370;2023-05-07T04:34:11;64.97;;;40.28;;
52508;SDS011;38420;53.150;6.370;2023-05-07T04:36:37;67.60;;;41.90;;
52508;SDS011;38420;53.150;6.370;2023-05-07T04:39:03;78.55;;;44.78;;
52508;SDS011;38420;53.150;6.370;2023-05-07T04:41:29;71.82;;;41.40;;
52508;SDS011;38420;53.150;6.370;2023-05-07T04:43:55;75.03;;;43.30;;
52508;SDS011;38420;53.150;6.370;2023-05-07T04:46:21;72.68;;;42.90;;
52508;SDS011;38420;53.150;6.370;2023-05-07T04:48:48;69.15;;;41.05;;
52508;SDS011;38420;53.150;6.370;2023-05-07T04:51:14;64.30;;;38.83;;
52508;SDS011;38420;53.150;6.370;2023-05-07T04:53:40;70.57;;;42.67;;
52508;SDS011;38420;53.150;6.370;2023-05-07T04:56:05;70.20;;;41.80;;
52508;SDS011;38420;53.150;6.370;2023-05-07T04:58:31;70.55;;;39.28;;
52508;SDS011;38420;53.150;6.370;2023-05-07T05:00:57;66.25;;;40.90;;
52508;SDS011;38420;53.150;6.370;2023-05-07T05:03:23;74.32;;;44.00;;
52508;SDS011;38420;53.150;6.370;2023-05-07T05:05:49;63.47;;;39.30;;
52508;SDS011;38420;53.150;6.370;2023-05-07T05:08:16;68.53;;;41.10;;
52508;SDS011;38420;53.150;6.370;2023-05-07T05:10:42;65.68;;;40.13;;
52508;SDS011;38420;53.150;6.370;2023-05-07T05:13:08;63.80;;;39.65;;
52508;SDS011;38420;53.150;6.370;2023-05-07T05:15:34;64.40;;;39.00;;
52508;SDS011;38420;53.150;6.370;2023-05-07T05:18:00;60.55;;;37.67;;
52508;SDS011;38420;53.150;6.370;2023-05-07T05:20:26;59.13;;;37.35;;
52508;SDS011;38420;53.150;6.370;2023-05-07T05:22:51;66.80;;;38.40;;
52508;SDS011;38420;53.150;6.370;2023-05-07T05:25:17;60.83;;;37.53;;
52508;SDS011;38420;53.150;6.370;2023-05-07T05:27:42;62.75;;;38.58;;
52508;SDS011;38420;53.150;6.370;2023-05-07T05:30:08;65.55;;;39.67;;
52508;SDS011;38420;53.150;6.370;2023-05-07T05:32:34;59.28;;;38.00;;
52508;SDS011;38420;53.150;6.370;2023-05-07T05:35:00;61.28;;;36.60;;
52508;SDS011;38420;53.150;6.370;2023-05-07T05:37:25;59.30;;;37.22;;
52508;SDS011;38420;53.150;6.370;2023-05-07T05:39:51;61.88;;;37.63;;
52508;SDS011;38420;53.150;6.370;2023-05-07T05:42:17;56.58;;;36.33;;
52508;SDS011;38420;53.150;6.370;2023-05-07T05:44:43;57.05;;;36.20;;
52508;SDS011;38420;53.150;6.370;2023-05-07T05:47:08;65.88;;;40.80;;
52508;SDS011;38420;53.150;6.370;2023-05-07T05:49:34;60.13;;;37.75;;
52508;SDS011;38420;53.150;6.370;2023-05-07T05:52:00;56.85;;;36.15;;
52508;SDS011;38420;53.150;6.370;2023-05-07T05:54:25;57.95;;;35.08;;
52508;SDS011;38420;53.150;6.370;2023-05-07T05:56:51;55.33;;;36.38;;
52508;SDS011;38420;53.150;6.370;2023-05-07T05:59:16;57.72;;;35.22;;
52508;SDS011;38420;53.150;6.370;2023-05-07T06:01:42;53.38;;;33.85;;
52508;SDS011;38420;53.150;6.370;2023-05-07T06:04:08;57.83;;;37.35;;
52508;SDS011;38420;53.150;6.370;2023-05-07T06:06:33;58.47;;;36.03;;
52508;SDS011;38420;53.150;6.370;2023-05-07T06:08:59;53.17;;;34.00;;
52508;SDS011;38420;53.150;6.370;2023-05-07T06:11:25;55.58;;;35.58;;
52508;SDS011;38420;53.150;6.370;2023-05-07T06:13:50;51.58;;;33.17;;
52508;SDS011;38420;53.150;6.370;2023-05-07T06:16:16;60.70;;;37.20;;
52508;SDS011;38420;53.150;6.370;2023-05-07T06:18:45;54.53;;;35.67;;
52508;SDS011;38420;53.150;6.370;2023-05-07T06:21:11;51.03;;;35.03;;
52508;SDS011;38420;53.150;6.370;2023-05-07T06:23:38;55.38;;;34.92;;
52508;SDS011;38420;53.150;6.370;2023-05-07T06:26:05;53.53;;;34.25;;
52508;SDS011;38420;53.150;6.370;2023-05-07T06:28:31;56.55;;;35.47;;
52508;SDS011;38420;53.150;6.370;2023-05-07T06:33:39;50.05;;;33.90;;
52508;SDS011;38420;53.150;6.370;2023-05-07T06:36:05;52.42;;;36.22;;
52508;SDS011;38420;53.150;6.370;2023-05-07T06:38:31;47.05;;;32.92;;
52508;SDS011;38420;53.150;6.370;2023-05-07T06:40:57;47.17;;;32.65;;
52508;SDS011;38420;53.150;6.370;2023-05-07T06:43:22;48.90;;;32.85;;
52508;SDS011;38420;53.150;6.370;2023-05-07T06:45:48;47.67;;;32.05;;
52508;SDS011;38420;53.150;6.370;2023-05-07T06:48:13;46.97;;;31.70;;
52508;SDS011;38420;53.150;6.370;2023-05-07T06:50:39;45.75;;;31.73;;
52508;SDS011;38420;53.150;6.370;2023-05-07T06:53:04;47.72;;;32.47;;
52508;SDS011;38420;53.150;6.370;2023-05-07T06:55:30;49.28;;;33.40;;
52508;SDS011;38420;53.150;6.370;2023-05-07T06:57:55;50.70;;;32.88;;
52508;SDS011;38420;53.150;6.370;2023-05-07T07:00:25;45.00;;;31.55;;
52508;SDS011;38420;53.150;6.370;2023-05-07T07:02:51;44.38;;;30.73;;
52508;SDS011;38420;53.150;6.370;2023-05-07T07:05:18;45.30;;;30.92;;
52508;SDS011;38420;53.150;6.370;2023-05-07T07:07:43;48.03;;;31.70;;
52508;SDS011;38420;53.150;6.370;2023-05-07T07:10:09;44.53;;;30.13;;
52508;SDS011;38420;53.150;6.370;2023-05-07T07:12:34;46.55;;;32.40;;
52508;SDS011;38420;53.150;6.370;2023-05-07T07:15:00;46.90;;;31.58;;
52508;SDS011;38420;53.150;6.370;2023-05-07T07:17:27;42.75;;;31.10;;
52508;SDS011;38420;53.150;6.370;2023-05-07T07:19:53;44.20;;;31.60;;
52508;SDS011;38420;53.150;6.370;2023-05-07T07:22:19;44.88;;;30.77;;
52508;SDS011;38420;53.150;6.370;2023-05-07T07:24:44;42.75;;;30.13;;
52508;SDS011;38420;53.150;6.370;2023-05-07T07:27:10;42.08;;;29.50;;
52508;SDS011;38420;53.150;6.370;2023-05-07T07:29:35;43.53;;;30.80;;
52508;SDS011;38420;53.150;6.370;2023-05-07T07:32:01;44.17;;;30.92;;
52508;SDS011;38420;53.150;6.370;2023-05-07T07:34:27;47.00;;;31.58;;
52508;SDS011;38420;53.150;6.370;2023-05-07T07:36:52;194.85;;;110.05;;
52508;SDS011;38420;53.150;6.370;2023-05-07T07:39:18;42.38;;;30.17;;
52508;SDS011;38420;53.150;6.370;2023-05-07T07:41:43;42.63;;;29.33;;
52508;SDS011;38420;53.150;6.370;2023-05-07T07:44:09;42.75;;;29.77;;
52508;SDS011;38420;53.150;6.370;2023-05-07T07:46:37;48.22;;;29.25;;
52508;SDS011;38420;53.150;6.370;2023-05-07T07:49:03;40.78;;;28.40;;
52508;SDS011;38420;53.150;6.370;2023-05-07T07:51:29;43.40;;;30.65;;
52508;SDS011;38420;53.150;6.370;2023-05-07T07:53:55;41.97;;;27.95;;
52508;SDS011;38420;53.150;6.370;2023-05-07T07:56:22;42.05;;;28.92;;
52508;SDS011;38420;53.150;6.370;2023-05-07T07:58:48;46.90;;;31.52;;
52508;SDS011;38420;53.150;6.370;2023-05-07T08:01:14;44.20;;;29.52;;
52508;SDS011;38420;53.150;6.370;2023-05-07T08:03:41;43.90;;;29.65;;
52508;SDS011;38420;53.150;6.370;2023-05-07T08:06:07;41.17;;;27.83;;
52508;SDS011;38420;53.150;6.370;2023-05-07T08:08:32;41.33;;;27.60;;
52508;SDS011;38420;53.150;6.370;2023-05-07T08:10:58;44.38;;;29.30;;
52508;SDS011;38420;53.150;6.370;2023-05-07T08:13:24;40.83;;;28.58;;
52508;SDS011;38420;53.150;6.370;2023-05-07T08:15:49;41.35;;;28.13;;
52508;SDS011;38420;53.150;6.370;2023-05-07T08:18:15;45.58;;;30.00;;
52508;SDS011;38420;53.150;6.370;2023-05-07T08:20:41;40.85;;;28.92;;
52508;SDS011;38420;53.150;6.370;2023-05-07T08:23:07;43.75;;;30.38;;
52508;SDS011;38420;53.150;6.370;2023-05-07T08:25:33;42.40;;;28.98;;
52508;SDS011;38420;53.150;6.370;2023-05-07T08:27:59;47.60;;;31.00;;
52508;SDS011;38420;53.150;6.370;2023-05-07T08:30:25;43.20;;;31.13;;
52508;SDS011;38420;53.150;6.370;2023-05-07T08:32:51;43.05;;;29.52;;
52508;SDS011;38420;53.150;6.370;2023-05-07T08:35:16;43.22;;;29.98;;
52508;SDS011;38420;53.150;6.370;2023-05-07T08:37:42;39.50;;;28.00;;
52508;SDS011;38420;53.150;6.370;2023-05-07T08:40:09;42.33;;;28.77;;
52508;SDS011;38420;53.150;6.370;2023-05-07T08:42:35;41.85;;;28.80;;
52508;SDS011;38420;53.150;6.370;2023-05-07T08:45:04;47.80;;;30.33;;
52508;SDS011;38420;53.150;6.370;2023-05-07T08:47:36;41.22;;;29.35;;
52508;SDS011;38420;53.150;6.370;2023-05-07T08:50:09;45.63;;;28.17;;
52508;SDS011;38420;53.150;6.370;2023-05-07T08:52:35;40.42;;;28.00;;
52508;SDS011;38420;53.150;6.370;2023-05-07T08:55:02;41.97;;;29.45;;
52508;SDS011;38420;53.150;6.370;2023-05-07T08:57:28;41.95;;;28.52;;
52508;SDS011;38420;53.150;6.370;2023-05-07T08:59:54;40.40;;;28.73;;
52508;SDS011;38420;53.150;6.370;2023-05-07T09:02:20;37.97;;;27.25;;
52508;SDS011;38420;53.150;6.370;2023-05-07T09:04:46;38.05;;;27.02;;
52508;SDS011;38420;53.150;6.370;2023-05-07T09:07:11;41.03;;;27.83;;
52508;SDS011;38420;53.150;6.370;2023-05-07T09:09:37;39.28;;;27.73;;
52508;SDS011;38420;53.150;6.370;2023-05-07T09:12:02;43.03;;;28.52;;
52508;SDS011;38420;53.150;6.370;2023-05-07T09:14:29;40.50;;;27.38;;
52508;SDS011;38420;53.150;6.370;2023-05-07T09:16:55;36.30;;;25.90;;
52508;SDS011;38420;53.150;6.370;2023-05-07T09:19:25;37.15;;;27.38;;
52508;SDS011;38420;53.150;6.370;2023-05-07T09:22:01;36.63;;;27.40;;
52508;SDS011;38420;53.150;6.370;2023-05-07T09:24:28;38.95;;;27.20;;
52508;SDS011;38420;53.150;6.370;2023-05-07T09:26:58;35.75;;;25.95;;
52508;SDS011;38420;53.150;6.370;2023-05-07T09:29:25;35.65;;;27.17;;
52508;SDS011;38420;53.150;6.370;2023-05-07T09:31:51;35.08;;;26.70;;
52508;SDS011;38420;53.150;6.370;2023-05-07T09:34:16;36.35;;;26.23;;
52508;SDS011;38420;53.150;6.370;2023-05-07T09:36:42;37.58;;;26.52;;
52508;SDS011;38420;53.150;6.370;2023-05-07T09:39:07;36.35;;;26.45;;
52508;SDS011;38420;53.150;6.370;2023-05-07T09:41:33;36.65;;;26.45;;
52508;SDS011;38420;53.150;6.370;2023-05-07T09:44:09;35.83;;;26.38;;
52508;SDS011;38420;53.150;6.370;2023-05-07T09:46:36;33.63;;;24.55;;
52508;SDS011;38420;53.150;6.370;2023-05-07T09:49:03;37.05;;;26.70;;
52508;SDS011;38420;53.150;6.370;2023-05-07T09:51:38;31.75;;;23.65;;
52508;SDS011;38420;53.150;6.370;2023-05-07T09:54:09;32.78;;;24.40;;
52508;SDS011;38420;53.150;6.370;2023-05-07T09:56:36;31.92;;;25.30;;
52508;SDS011;38420;53.150;6.370;2023-05-07T09:59:03;34.63;;;24.90;;
52508;SDS011;38420;53.150;6.370;2023-05-07T10:01:31;32.28;;;24.17;;
52508;SDS011;38420;53.150;6.370;2023-05-07T10:03:57;32.97;;;25.20;;
52508;SDS011;38420;53.150;6.370;2023-05-07T10:06:24;31.15;;;23.70;;
52508;SDS011;38420;53.150;6.370;2023-05-07T10:08:50;34.10;;;24.77;;
52508;SDS011;38420;53.150;6.370;2023-05-07T10:11:17;31.98;;;23.73;;
52508;SDS011;38420;53.150;6.370;2023-05-07T10:13:44;30.90;;;23.30;;
52508;SDS011;38420;53.150;6.370;2023-05-07T10:16:12;29.13;;;22.33;;
52508;SDS011;38420;53.150;6.370;2023-05-07T10:18:40;28.92;;;22.23;;
52508;SDS011;38420;53.150;6.370;2023-05-07T10:21:23;29.35;;;21.35;;
52508;SDS011;38420;53.150;6.370;2023-05-07T10:23:49;29.30;;;22.15;;
52508;SDS011;38420;53.150;6.370;2023-05-07T10:26:17;27.40;;;21.38;;
52508;SDS011;38420;53.150;6.370;2023-05-07T10:28:46;29.95;;;22.67;;
52508;SDS011;38420;53.150;6.370;2023-05-07T10:31:25;31.55;;;23.02;;
52508;SDS011;38420;53.150;6.370;2023-05-07T10:34:11;28.65;;;21.80;;
52508;SDS011;38420;53.150;6.370;2023-05-07T10:36:41;30.33;;;22.13;;
52508;SDS011;38420;53.150;6.370;2023-05-07T10:39:08;27.20;;;21.38;;
52508;SDS011;38420;53.150;6.370;2023-05-07T10:41:34;28.00;;;21.00;;
52508;SDS011;38420;53.150;6.370;2023-05-07T10:44:00;29.55;;;23.45;;
52508;SDS011;38420;53.150;6.370;2023-05-07T10:46:27;25.58;;;21.35;;
52508;SDS011;38420;53.150;6.370;2023-05-07T10:51:33;26.33;;;20.50;;
52508;SDS011;38420;53.150;6.370;2023-05-07T11:01:56;29.65;;;21.42;;
52508;SDS011;38420;53.150;6.370;2023-05-07T11:04:22;25.55;;;20.27;;
52508;SDS011;38420;53.150;6.370;2023-05-07T11:12:45;27.00;;;21.17;;
52508;SDS011;38420;53.150;6.370;2023-05-07T11:15:04;26.95;;;21.23;;
52508;SDS011;38420;53.150;6.370;2023-05-07T11:20:01;25.60;;;20.50;;
52508;SDS011;38420;53.150;6.370;2023-05-07T11:24:55;26.30;;;20.65;;
52508;SDS011;38420;53.150;6.370;2023-05-07T11:27:25;25.60;;;19.70;;
52508;SDS011;38420;53.150;6.370;2023-05-07T11:29:51;22.80;;;19.27;;
52508;SDS011;38420;53.150;6.370;2023-05-07T11:32:27;21.02;;;18.42;;
52508;SDS011;38420;53.150;6.370;2023-05-07T11:34:54;24.77;;;19.63;;
52508;SDS011;38420;53.150;6.370;2023-05-07T11:37:22;21.63;;;17.85;;
52508;SDS011;38420;53.150;6.370;2023-05-07T11:39:48;21.25;;;18.48;;
52508;SDS011;38420;53.150;6.370;2023-05-07T11:42:27;23.75;;;18.23;;
52508;SDS011;38420;53.150;6.370;2023-05-07T11:44:57;22.45;;;19.05;;
52508;SDS011;38420;53.150;6.370;2023-05-07T11:47:23;22.10;;;18.40;;
52508;SDS011;38420;53.150;6.370;2023-05-07T11:49:49;23.50;;;18.73;;
52508;SDS011;38420;53.150;6.370;2023-05-07T11:52:17;23.88;;;18.67;;
52508;SDS011;38420;53.150;6.370;2023-05-07T11:54:54;21.23;;;17.95;;
52508;SDS011;38420;53.150;6.370;2023-05-07T11:57:21;21.48;;;17.58;;
52508;SDS011;38420;53.150;6.370;2023-05-07T11:59:47;21.83;;;18.30;;
52508;SDS011;38420;53.150;6.370;2023-05-07T12:02:17;21.00;;;18.27;;
52508;SDS011;38420;53.150;6.370;2023-05-07T12:04:43;20.88;;;17.90;;
52508;SDS011;38420;53.150;6.370;2023-05-07T12:07:15;20.92;;;17.85;;
52508;SDS011;38420;53.150;6.370;2023-05-07T12:09:42;21.98;;;16.92;;
52508;SDS011;38420;53.150;6.370;2023-05-07T12:12:08;21.52;;;19.13;;
52508;SDS011;38420;53.150;6.370;2023-05-07T12:14:38;21.27;;;17.52;;
52508;SDS011;38420;53.150;6.370;2023-05-07T12:17:05;21.60;;;18.50;;
52508;SDS011;38420;53.150;6.370;2023-05-07T12:19:35;21.35;;;18.65;;
52508;SDS011;38420;53.150;6.370;2023-05-07T12:22:02;21.65;;;17.73;;
52508;SDS011;38420;53.150;6.370;2023-05-07T12:24:28;19.88;;;17.63;;
52508;SDS011;38420;53.150;6.370;2023-05-07T12:27:06;19.63;;;17.52;;
52508;SDS011;38420;53.150;6.370;2023-05-07T12:29:31;22.92;;;18.63;;
52508;SDS011;38420;53.150;6.370;2023-05-07T12:31:57;21.58;;;17.45;;
52508;SDS011;38420;53.150;6.370;2023-05-07T12:34:23;21.77;;;17.95;;
52508;SDS011;38420;53.150;6.370;2023-05-07T12:36:49;19.00;;;17.05;;
52508;SDS011;38420;53.150;6.370;2023-05-07T12:39:14;19.70;;;17.60;;
52508;SDS011;38420;53.150;6.370;2023-05-07T12:41:56;22.38;;;18.05;;
52508;SDS011;38420;53.150;6.370;2023-05-07T12:44:28;20.42;;;16.92;;
52508;SDS011;38420;53.150;6.370;2023-05-07T12:46:58;19.98;;;17.77;;
52508;SDS011;38420;53.150;6.370;2023-05-07T12:49:26;21.35;;;18.77;;
52508;SDS011;38420;53.150;6.370;2023-05-07T12:51:53;20.35;;;18.05;;
52508;SDS011;38420;53.150;6.370;2023-05-07T12:54:31;21.58;;;17.60;;
52508;SDS011;38420;53.150;6.370;2023-05-07T12:57:05;20.10;;;17.15;;
52508;SDS011;38420;53.150;6.370;2023-05-07T12:59:39;22.52;;;18.48;;
52508;SDS011;38420;53.150;6.370;2023-05-07T13:02:05;20.63;;;18.02;;
52508;SDS011;38420;53.150;6.370;2023-05-07T13:04:32;18.83;;;16.83;;
52508;SDS011;38420;53.150;6.370;2023-05-07T13:06:58;19.15;;;16.33;;
52508;SDS011;38420;53.150;6.370;2023-05-07T13:09:24;21.10;;;17.67;;
52508;SDS011;38420;53.150;6.370;2023-05-07T13:11:50;19.60;;;17.48;;
52508;SDS011;38420;53.150;6.370;2023-05-07T13:14:16;17.33;;;15.52;;
52508;SDS011;38420;53.150;6.370;2023-05-07T13:16:41;22.23;;;18.50;;
52508;SDS011;38420;53.150;6.370;2023-05-07T13:19:07;18.45;;;16.48;;
52508;SDS011;38420;53.150;6.370;2023-05-07T13:21:33;19.90;;;16.05;;
52508;SDS011;38420;53.150;6.370;2023-05-07T13:23:58;20.15;;;18.05;;
52508;SDS011;38420;53.150;6.370;2023-05-07T13:26:25;18.73;;;16.70;;
52508;SDS011;38420;53.150;6.370;2023-05-07T13:28:51;21.40;;;17.63;;
52508;SDS011;38420;53.150;6.370;2023-05-07T13:31:19;18.45;;;16.63;;
52508;SDS011;38420;53.150;6.370;2023-05-07T13:33:46;18.27;;;15.93;;
52508;SDS011;38420;53.150;6.370;2023-05-07T13:36:11;18.75;;;16.75;;
52508;SDS011;38420;53.150;6.370;2023-05-07T13:38:37;19.75;;;17.00;;
52508;SDS011;38420;53.150;6.370;2023-05-07T13:41:03;18.50;;;16.60;;
52508;SDS011;38420;53.150;6.370;2023-05-07T13:43:29;18.30;;;16.33;;
52508;SDS011;38420;53.150;6.370;2023-05-07T13:45:56;18.90;;;16.80;;
52508;SDS011;38420;53.150;6.370;2023-05-07T13:48:22;18.63;;;16.65;;
52508;SDS011;38420;53.150;6.370;2023-05-07T13:50:48;16.95;;;15.15;;
52508;SDS011;38420;53.150;6.370;2023-05-07T13:53:13;18.40;;;16.48;;
52508;SDS011;38420;53.150;6.370;2023-05-07T13:55:42;18.20;;;16.33;;
52508;SDS011;38420;53.150;6.370;2023-05-07T13:58:09;20.23;;;17.83;;
52508;SDS011;38420;53.150;6.370;2023-05-07T14:00:34;19.58;;;17.60;;
52508;SDS011;38420;53.150;6.370;2023-05-07T14:03:00;19.05;;;17.05;;
52508;SDS011;38420;53.150;6.370;2023-05-07T14:05:26;18.27;;;16.33;;
52508;SDS011;38420;53.150;6.370;2023-05-07T14:07:53;19.50;;;17.38;;
52508;SDS011;38420;53.150;6.370;2023-05-07T14:10:22;19.08;;;17.08;;
52508;SDS011;38420;53.150;6.370;2023-05-07T14:12:48;18.23;;;16.10;;
52508;SDS011;38420;53.150;6.370;2023-05-07T14:15:14;19.17;;;17.20;;
52508;SDS011;38420;53.150;6.370;2023-05-07T14:17:40;17.85;;;16.05;;
52508;SDS011;38420;53.150;6.370;2023-05-07T14:20:06;19.60;;;17.40;;
52508;SDS011;38420;53.150;6.370;2023-05-07T14:22:32;18.48;;;15.90;;
52508;SDS011;38420;53.150;6.370;2023-05-07T14:24:58;18.98;;;15.93;;
52508;SDS011;38420;53.150;6.370;2023-05-07T14:27:23;17.15;;;15.38;;
52508;SDS011;38420;53.150;6.370;2023-05-07T14:29:49;19.58;;;17.58;;
52508;SDS011;38420;53.150;6.370;2023-05-07T14:32:19;20.35;;;18.00;;
52508;SDS011;38420;53.150;6.370;2023-05-07T14:34:45;145.95;;;83.80;;
52508;SDS011;38420;53.150;6.370;2023-05-07T14:37:11;17.92;;;16.02;;
52508;SDS011;38420;53.150;6.370;2023-05-07T14:39:37;19.63;;;16.08;;
52508;SDS011;38420;53.150;6.370;2023-05-07T14:42:02;17.67;;;14.98;;